TimeEST,TemperatureF,Dew PointF,Humidity,Sea Level PressureIn,VisibilityMPH,Wind Direction,Wind SpeedMPH,Gust SpeedMPH,PrecipitationIn,Events,Conditions,WindDirDegrees,DateUTC
12:44 AM,39.2,35.6,87,29.99,9.0,West,9.2,-,N/A,,Overcast,270,2013-01-29 05:44:00
12:54 AM,39.0,36.0,89,30.01,9.0,West,8.1,-,N/A,,Overcast,270,2013-01-29 05:54:00
1:54 AM,37.9,36.0,93,30.02,8.0,West,6.9,-,N/A,,Overcast,260,2013-01-29 06:54:00
2:54 AM,37.0,35.1,93,30.04,7.0,WSW,5.8,-,N/A,,Overcast,240,2013-01-29 07:54:00
3:54 AM,35.1,34.0,96,30.03,3.0,SW,4.6,-,N/A,,Overcast,220,2013-01-29 08:54:00
4:54 AM,35.1,34.0,96,30.04,5.0,WSW,5.8,-,N/A,,Overcast,240,2013-01-29 09:54:00
5:07 AM,35.6,33.8,93,30.03,5.0,WSW,3.5,-,N/A,,Overcast,240,2013-01-29 10:07:00
5:35 AM,35.6,33.8,93,30.02,5.0,South,5.8,-,N/A,,Overcast,190,2013-01-29 10:35:00
5:54 AM,35.1,33.1,92,30.04,9.0,Calm,Calm,-,N/A,,Overcast,0,2013-01-29 10:54:00
6:54 AM,35.1,33.1,92,30.03,8.0,SSE,3.5,-,N/A,,Overcast,150,2013-01-29 11:54:00
7:22 AM,35.6,33.8,93,30.01,2.0,SSE,3.5,-,0.00,,Light Drizzle,160,2013-01-29 12:22:00
7:25 AM,35.6,33.8,93,30.00,1.5,SSE,4.6,-,0.00,,Light Drizzle,150,2013-01-29 12:25:00
7:37 AM,35.6,33.8,93,30.01,1.2,SE,4.6,-,0.00,,Light Drizzle,130,2013-01-29 12:37:00
7:54 AM,35.1,34.0,96,30.03,1.0,SE,3.5,-,0.00,,Light Drizzle,140,2013-01-29 12:54:00
7:57 AM,35.6,33.8,93,30.00,0.8,ESE,3.5,-,0.00,,Light Drizzle,120,2013-01-29 12:57:00
8:22 AM,35.6,35.6,100,30.01,1.0,ESE,3.5,-,0.00,,Light Drizzle,120,2013-01-29 13:22:00
8:41 AM,35.6,35.6,100,30.00,1.2,ESE,3.5,-,0.00,,Light Drizzle,110,2013-01-29 13:41:00
8:54 AM,36.0,35.1,97,30.01,2.0,East,4.6,-,0.00,,Overcast,100,2013-01-29 13:54:00
9:12 AM,35.6,35.6,100,29.98,3.0,ESE,6.9,-,N/A,,Overcast,110,2013-01-29 14:12:00
9:33 AM,37.4,35.6,93,29.96,5.0,ESE,9.2,-,N/A,,Overcast,110,2013-01-29 14:33:00
9:54 AM,37.9,36.0,93,29.97,6.0,ESE,5.8,-,N/A,,Overcast,120,2013-01-29 14:54:00
10:54 AM,41.0,37.9,89,29.94,8.0,ESE,6.9,-,0.00,,Overcast,110,2013-01-29 15:54:00
11:39 AM,41.0,39.2,93,29.95,3.0,NW,16.1,-,0.02,Rain,Rain,320,2013-01-29 16:39:00
11:41 AM,41.0,39.2,93,29.97,1.5,NW,18.4,23.0,0.03,Rain,Rain,310,2013-01-29 16:41:00
11:45 AM,39.2,37.4,93,29.99,0.8,WNW,15.0,23.0,0.05,Rain,Heavy Rain,300,2013-01-29 16:45:00
11:54 AM,39.0,37.9,96,29.96,1.0,NNE,8.1,-,0.19,Rain,Heavy Rain,30,2013-01-29 16:54:00
11:56 AM,39.2,37.4,93,29.93,1.2,NE,8.1,-,0.01,Rain,Heavy Rain,40,2013-01-29 16:56:00
12:02 PM,39.2,37.4,93,29.91,1.5,ENE,9.2,-,0.03,Rain,Heavy Rain,70,2013-01-29 17:02:00
12:07 PM,39.2,37.4,93,29.90,1.5,East,10.4,-,0.05,Rain,Heavy Rain,80,2013-01-29 17:07:00
12:16 PM,39.2,37.4,93,29.83,2.0,ESE,19.6,-,0.10,Rain,Rain,110,2013-01-29 17:16:00
12:23 PM,39.2,39.2,100,29.85,4.0,SE,13.8,-,0.12,Rain,Light Rain,140,2013-01-29 17:23:00
12:32 PM,41.0,41.0,100,29.88,4.0,SSW,6.9,-,0.12,Rain,Light Rain,200,2013-01-29 17:32:00
12:44 PM,41.0,39.2,93,29.89,3.0,SSW,5.8,-,0.12,Rain,Light Rain,200,2013-01-29 17:44:00
12:54 PM,41.0,41.0,100,29.89,4.0,South,4.6,-,0.13,Rain,Light Rain,170,2013-01-29 17:54:00
1:18 PM,42.8,41.0,93,29.85,2.0,ESE,6.9,-,0.00,Rain,Rain,110,2013-01-29 18:18:00
1:28 PM,42.8,42.8,100,29.85,2.5,SSE,5.8,-,0.01,Rain,Rain,150,2013-01-29 18:28:00
1:32 PM,44.6,42.8,93,29.85,4.0,Variable,4.6,-,0.02,Rain,Light Rain,0,2013-01-29 18:32:00
1:41 PM,44.6,44.6,100,29.84,8.0,South,3.5,-,0.02,Rain,Light Rain,180,2013-01-29 18:41:00
1:54 PM,46.0,44.1,93,29.85,6.0,South,5.8,-,0.02,Rain,Light Rain,190,2013-01-29 18:54:00
2:24 PM,44.6,44.6,100,29.82,2.5,SSE,3.5,-,0.00,Rain,Light Rain,160,2013-01-29 19:24:00
2:37 PM,46.4,44.6,93,29.82,5.0,South,5.8,-,0.03,Rain,Light Rain,170,2013-01-29 19:37:00
2:54 PM,46.0,45.0,96,29.84,3.0,South,5.8,-,0.03,Rain,Light Rain,180,2013-01-29 19:54:00
2:58 PM,46.4,44.6,93,29.83,2.0,SSW,4.6,-,0.00,Rain,Light Rain,210,2013-01-29 19:58:00
3:00 PM,46.4,44.6,93,29.84,1.5,SSW,5.8,-,0.00,Rain,Light Rain,210,2013-01-29 20:00:00
3:19 PM,48.2,46.4,93,29.83,1.5,SSW,9.2,-,0.07,Rain,Rain,200,2013-01-29 20:19:00
3:46 PM,50.0,48.2,94,29.82,1.5,SSW,11.5,-,0.11,Rain,Light Rain,200,2013-01-29 20:46:00
3:54 PM,50.0,48.9,96,29.83,1.5,South,15.0,-,0.11,Rain,Light Rain,190,2013-01-29 20:54:00
4:07 PM,50.0,48.2,94,29.81,4.0,SSW,13.8,-,0.01,Rain,Light Rain,200,2013-01-29 21:07:00
4:23 PM,51.8,48.2,88,29.81,9.0,SSW,13.8,-,0.01,Rain,Light Rain,200,2013-01-29 21:23:00
4:48 PM,51.8,48.2,88,29.81,10.0,SSW,15.0,-,0.01,Rain,Light Rain,200,2013-01-29 21:48:00
4:54 PM,52.0,50.0,93,29.83,10.0,SSW,12.7,-,0.01,Rain,Light Rain,210,2013-01-29 21:54:00
5:54 PM,52.0,50.0,93,29.82,8.0,SSW,13.8,-,0.01,Rain,Light Rain,200,2013-01-29 22:54:00
6:54 PM,54.0,51.1,90,29.81,8.0,SSW,15.0,-,0.01,,Overcast,210,2013-01-29 23:54:00
7:54 PM,54.0,52.0,93,29.82,5.0,SSW,12.7,-,0.07,Rain,Light Rain,200,2013-01-30 00:54:00
8:29 PM,53.6,51.8,94,29.79,7.0,SSW,11.5,-,0.02,Rain,Light Rain,200,2013-01-30 01:29:00
8:54 PM,54.0,52.0,93,29.80,9.0,South,11.5,-,0.02,Rain,Light Rain,190,2013-01-30 01:54:00
9:54 PM,55.0,52.0,89,29.78,4.0,SSW,12.7,-,0.03,Rain,Rain,200,2013-01-30 02:54:00
10:54 PM,55.9,52.0,87,29.74,10.0,South,12.7,-,0.06,Rain,Light Rain,180,2013-01-30 03:54:00
11:54 PM,57.0,53.1,87,29.72,7.0,South,15.0,-,0.04,Rain,Light Rain,190,2013-01-30 04:54:00